Hlavní strana
METAR-TAF:

METAR-TAF

Letiště :

Vidsel, Švédsko

zeměpisná šířka: 65-52N, zeměpisná délka: 020-08E, výška: 180 m

Aktuální stav počasí

Zpráva byla vytvořena před 36 minutami, v 21:20 UTC
Západní vítr 10 kt
Teplota 6°C
Vlhkost vzduchu 70%
Tlak 1010 hPa
Viditelnost 10 km a více

METAR: ESPE 282120Z AUTO 27010KT 9999 NCD 06/01 Q1010

Čas: 22:56 (21:56 UTC)


TAF: chybějící

Stav a předpovědi počasí z více než 4 000 letišť (zprávy METAR a TAF).

Červené a žluté tečky na mapě představují dostupné meteorologické stanice.

Když kurzor umístíte na tečku, zobrazí se název stanice.

Pak kliknutím zobrazíte stav a předpověď počasí.

Chcete-li změnit mapu, kliknutím na zelené tlačítko se znaménkem +mapu přiblížíte, kliknutím na zelené tlačítko se znaménkem – mapu oddálíte a kliknutím na zelené šipky přejdete na sousední mapy.


METAR-TAF: